Pimlico — WDC3747 — position and weather

sailwx.info

Track history (hours):
 
Tides and Currents Weather Stations Pressure Air Temp Water Temp Dewpoint Dewpoint Depression Visibility Wind Speed Wind Dir Waves Ship Positions

Pimlico

Owner: Higman Barge Lines, Inc., Orange, TX. More information available from US FCC via Universal Licensing System and Coast Guard Vessel Documentation Center.

Last reported at 2017-Aug-27 07:05 UTC. Time now 2017-Sep-23 07:15 UTC.
Position N 30°05' W 093°44'.
Warning: this ship's position is 27 days out of date.

Length 24 m; draft 3 m.

Type: Towing. MMSI: 367013470.

Date/timePositionNaut miles runAvg speedWind from/ knotsBaromVisibWave heightAir tempDewpointWater temp
2017-Aug-27 07:05N 30°05' W 093°44'  
2017-Aug-24 22:50N 30°05' W 093°44'0 0.0
2017-Aug-24 05:01N 30°05' W 093°44'0 0.1
2017-Aug-24 04:56N 30°05' W 093°44'0 0.0
2017-Aug-24 04:02N 30°05' W 093°44'0 0.0
2017-Aug-24 04:00N 30°05' W 093°44'0 0.0
2017-Aug-23 13:50N 30°05' W 093°44'0 0.0
2017-Aug-23 13:26N 30°05' W 093°44'0 0.0
2017-Aug-23 01:16N 30°05' W 093°44'0 0.0
2017-Aug-22 13:30N 30°05' W 093°44'0 0.0
2017-Aug-22 12:53N 30°05' W 093°44'0 0.0
2017-Aug-21 13:27N 30°05' W 093°44'0 0.0
2017-Aug-21 12:59N 30°05' W 093°44'0 0.0
2017-Aug-21 12:08N 30°05' W 093°44'0 0.0
2017-Aug-21 12:00N 30°05' W 093°44'0 0.0
2017-Aug-20 22:20N 30°05' W 093°44'0 0.0
2017-Aug-20 21:50N 30°05' W 093°44'0 0.0
2017-Aug-20 21:30N 30°05' W 093°44'0 0.0
2017-Aug-20 21:00N 30°05' W 093°44'0 0.0
2017-Aug-20 20:30N 30°05' W 093°44'0 0.0
2017-Aug-20 06:56N 30°05' W 093°44'0 0.0
2017-Aug-20 06:07N 30°05' W 093°44'0 0.0
2017-Aug-20 05:56N 30°05' W 093°44'0 0.0
2017-Aug-19 12:16N 30°05' W 093°44'0 0.0
2017-Aug-19 11:52N 30°05' W 093°44'0 0.0
2017-Aug-19 11:18N 30°05' W 093°44'0 0.0
2017-Aug-19 11:00N 30°05' W 093°44'0 0.0
2017-Aug-19 10:28N 30°05' W 093°44'0 0.0
2017-Aug-19 09:53N 30°05' W 093°44'0 0.0
2017-Aug-19 09:17N 30°05' W 093°44'0 0.0
2017-Aug-19 08:59N 30°05' W 093°44'0 0.0
2017-Aug-19 07:54N 30°05' W 093°44'0 0.0
2017-Aug-19 07:30N 30°05' W 093°44'0 0.0
2017-Aug-19 05:59N 30°05' W 093°44'0 0.0
2017-Aug-18 13:05N 30°05' W 093°44'0 0.0
2017-Aug-18 12:44N 30°05' W 093°44'0 0.0
2017-Aug-18 06:14N 30°05' W 093°44'0 0.0
2017-Aug-18 06:00N 30°05' W 093°44'0 0.0
2017-Aug-18 05:18N 30°05' W 093°44'2 0.1
2017-Aug-17 12:14N 30°03' W 093°43'1 5.1
2017-Aug-17 12:00N 30°04' W 093°42'2 4.6
2017-Aug-17 11:30N 30°04' W 093°39'2 4.7
2017-Aug-17 11:00N 30°04' W 093°36'2 4.9
2017-Aug-17 10:30N 30°04' W 093°34'3 5.1
2017-Aug-17 10:00N 30°04' W 093°31'3 5.2
2017-Aug-17 09:30N 30°04' W 093°28'3 5.4
2017-Aug-17 09:00N 30°04' W 093°24'3 5.8
2017-Aug-17 08:30N 30°04' W 093°21'3 5.6
2017-Aug-17 08:00N 30°06' W 093°19'2 4.6
2017-Aug-17 07:30N 30°05' W 093°17'  
Track history (hours):
 
Tides and Currents Weather Stations Pressure Air Temp Water Temp Dewpoint Dewpoint Depression Visibility Wind Speed Wind Dir Waves Ship Positions

Pimlico

Owner: Higman Barge Lines, Inc., Orange, TX. More information available from US FCC via Universal Licensing System and Coast Guard Vessel Documentation Center.

Last reported at 2017-Aug-27 07:05 UTC. Time now 2017-Sep-23 07:15 UTC.
Position N 30°05' W 093°44'.
Warning: this ship's position is 27 days out of date.

Length 24 m; draft 3 m.

Type: Towing. MMSI: 367013470.

Date/timePositionNaut miles runAvg speedWind from/ knotsBaromVisibWave heightAir tempDewpointWater temp
2017-Aug-27 07:05N 30°05' W 093°44'  
2017-Aug-24 22:50N 30°05' W 093°44'0 0.0
2017-Aug-24 05:01N 30°05' W 093°44'0 0.1
2017-Aug-24 04:56N 30°05' W 093°44'0 0.0
2017-Aug-24 04:02N 30°05' W 093°44'0 0.0
2017-Aug-24 04:00N 30°05' W 093°44'0 0.0
2017-Aug-23 13:50N 30°05' W 093°44'0 0.0
2017-Aug-23 13:26N 30°05' W 093°44'0 0.0
2017-Aug-23 01:16N 30°05' W 093°44'0 0.0
2017-Aug-22 13:30N 30°05' W 093°44'0 0.0
2017-Aug-22 12:53N 30°05' W 093°44'0 0.0
2017-Aug-21 13:27N 30°05' W 093°44'0 0.0
2017-Aug-21 12:59N 30°05' W 093°44'0 0.0
2017-Aug-21 12:08N 30°05' W 093°44'0 0.0
2017-Aug-21 12:00N 30°05' W 093°44'0 0.0
2017-Aug-20 22:20N 30°05' W 093°44'0 0.0
2017-Aug-20 21:50N 30°05' W 093°44'0 0.0
2017-Aug-20 21:30N 30°05' W 093°44'0 0.0
2017-Aug-20 21:00N 30°05' W 093°44'0 0.0
2017-Aug-20 20:30N 30°05' W 093°44'0 0.0
2017-Aug-20 06:56N 30°05' W 093°44'0 0.0
2017-Aug-20 06:07N 30°05' W 093°44'0 0.0
2017-Aug-20 05:56N 30°05' W 093°44'0 0.0
2017-Aug-19 12:16N 30°05' W 093°44'0 0.0
2017-Aug-19 11:52N 30°05' W 093°44'0 0.0
2017-Aug-19 11:18N 30°05' W 093°44'0 0.0
2017-Aug-19 11:00N 30°05' W 093°44'0 0.0
2017-Aug-19 10:28N 30°05' W 093°44'0 0.0
2017-Aug-19 09:53N 30°05' W 093°44'0 0.0
2017-Aug-19 09:17N 30°05' W 093°44'0 0.0
2017-Aug-19 08:59N 30°05' W 093°44'0 0.0
2017-Aug-19 07:54N 30°05' W 093°44'0 0.0
2017-Aug-19 07:30N 30°05' W 093°44'0 0.0
2017-Aug-19 05:59N 30°05' W 093°44'0 0.0
2017-Aug-18 13:05N 30°05' W 093°44'0 0.0
2017-Aug-18 12:44N 30°05' W 093°44'0 0.0
2017-Aug-18 06:14N 30°05' W 093°44'0 0.0
2017-Aug-18 06:00N 30°05' W 093°44'0 0.0
2017-Aug-18 05:18N 30°05' W 093°44'2 0.1
2017-Aug-17 12:14N 30°03' W 093°43'1 5.1
2017-Aug-17 12:00N 30°04' W 093°42'2 4.6
2017-Aug-17 11:30N 30°04' W 093°39'2 4.7
2017-Aug-17 11:00N 30°04' W 093°36'2 4.9
2017-Aug-17 10:30N 30°04' W 093°34'3 5.1
2017-Aug-17 10:00N 30°04' W 093°31'3 5.2
2017-Aug-17 09:30N 30°04' W 093°28'3 5.4
2017-Aug-17 09:00N 30°04' W 093°24'3 5.8
2017-Aug-17 08:30N 30°04' W 093°21'3 5.6
2017-Aug-17 08:00N 30°06' W 093°19'2 4.6
2017-Aug-17 07:30N 30°05' W 093°17'  

Dump ship's entire track history